createdAt,value
2023-06-27T00:04:57.719Z,101247.88
2023-06-27T00:09:59.551Z,101255.63
2023-06-27T00:15:01.454Z,101253.53
2023-06-27T00:20:03.911Z,101253.47
2023-06-27T00:25:05.854Z,101251.13
2023-06-27T00:30:08.171Z,101244.03
2023-06-27T00:35:09.925Z,101248.25
2023-06-27T00:40:11.820Z,101239.59
2023-06-27T00:45:13.417Z,101239.94
2023-06-27T00:50:14.953Z,101253.03
2023-06-27T00:55:16.460Z,101254.47
2023-06-27T01:00:18.706Z,101241.78
2023-06-27T01:05:20.477Z,101244.63
2023-06-27T01:10:29.970Z,101238.53
2023-06-27T01:15:31.480Z,101240.28
2023-06-27T01:20:33.951Z,101238.75
2023-06-27T01:25:39.101Z,101233.13
2023-06-27T01:30:41.982Z,101231.97
2023-06-27T01:35:56.633Z,101225.44
2023-06-27T01:41:00.113Z,101247.97
2023-06-27T01:46:01.679Z,101233.81
2023-06-27T01:51:09.628Z,101238.16
2023-06-27T01:56:11.149Z,101230.00
2023-06-27T02:01:12.707Z,101229.94
2023-06-27T02:06:16.364Z,101239.56
2023-06-27T02:11:17.881Z,101243.03
2023-06-27T02:16:19.379Z,101231.50
2023-06-27T02:21:20.875Z,101234.50
2023-06-27T02:26:22.380Z,101222.63
2023-06-27T02:31:24.056Z,101234.81
2023-06-27T02:36:28.457Z,101220.63
2023-06-27T02:41:29.997Z,101226.72
2023-06-27T02:46:31.596Z,101199.06
2023-06-27T02:51:33.180Z,101213.34
2023-06-27T02:56:34.684Z,101217.81
2023-06-27T03:01:36.230Z,101213.00
2023-06-27T03:06:37.771Z,101204.38
2023-06-27T03:11:39.276Z,101216.47
2023-06-27T03:16:41.052Z,101224.34
2023-06-27T03:21:42.724Z,101222.06
2023-06-27T03:26:44.514Z,101226.53
2023-06-27T03:31:46.118Z,101229.97
2023-06-27T03:36:47.672Z,101225.31
2023-06-27T03:41:49.182Z,101224.63
2023-06-27T03:46:50.895Z,101222.66
2023-06-27T03:51:52.400Z,101223.22
2023-06-27T03:56:53.908Z,101222.03
2023-06-27T04:01:55.423Z,101229.97
2023-06-27T04:06:56.961Z,101216.09
2023-06-27T04:12:00.646Z,101224.91
2023-06-27T04:17:02.227Z,101223.22
2023-06-27T04:22:04.119Z,101224.22
2023-06-27T04:27:05.705Z,101216.00
2023-06-27T04:32:08.563Z,101219.28
2023-06-27T04:37:10.068Z,101209.34
2023-06-27T04:42:11.612Z,101213.03
2023-06-27T04:47:13.133Z,101213.13
2023-06-27T04:52:14.631Z,101220.75
2023-06-27T04:57:18.509Z,101212.31
2023-06-27T05:02:21.268Z,101212.59
2023-06-27T05:07:22.833Z,101218.97
2023-06-27T05:12:24.363Z,101219.53
2023-06-27T05:17:25.918Z,101225.06
2023-06-27T05:22:27.580Z,101223.53
2023-06-27T05:27:29.106Z,101210.41
2023-06-27T05:32:30.677Z,101216.66
2023-06-27T05:37:32.201Z,101223.13
2023-06-27T05:42:34.028Z,101224.16
2023-06-27T05:47:35.555Z,101230.06
2023-06-27T05:52:37.147Z,101225.38
2023-06-27T05:57:38.675Z,101227.31
2023-06-27T06:02:42.585Z,101219.00
2023-06-27T06:07:44.988Z,101233.03
2023-06-27T06:12:46.535Z,101221.75
2023-06-27T06:17:48.137Z,101226.19
2023-06-27T06:22:49.698Z,101235.47
2023-06-27T06:27:51.230Z,101244.72
2023-06-27T06:32:52.766Z,101244.72
2023-06-27T06:37:54.853Z,101253.91
2023-06-27T06:42:56.315Z,101249.69
2023-06-27T06:47:57.858Z,101249.78
2023-06-27T06:52:59.428Z,101243.22
2023-06-27T06:58:00.943Z,101247.13
2023-06-27T07:03:03.269Z,101252.00
2023-06-27T07:08:05.199Z,101251.25
2023-06-27T07:13:06.849Z,101253.75
2023-06-27T07:18:08.390Z,101253.47
2023-06-27T07:23:09.906Z,101261.81
2023-06-27T07:28:11.436Z,101254.75
2023-06-27T07:33:13.681Z,101253.69
2023-06-27T07:38:17.623Z,101255.38
2023-06-27T07:43:19.163Z,101255.91
2023-06-27T07:48:20.729Z,101250.94
2023-06-27T07:53:22.240Z,101251.78
2023-06-27T07:58:23.795Z,101253.44
2023-06-27T08:03:25.990Z,101249.34
2023-06-27T08:08:27.635Z,101250.69
2023-06-27T08:13:29.183Z,101252.72
2023-06-27T08:18:30.853Z,101249.53
2023-06-27T08:23:32.475Z,101251.44
2023-06-27T08:28:34.131Z,101247.03
2023-06-27T08:33:35.666Z,101253.34
2023-06-27T08:38:37.285Z,101257.84
2023-06-27T08:43:40.212Z,101258.47
2023-06-27T08:48:42.996Z,101249.34
2023-06-27T08:53:45.500Z,101248.63
2023-06-27T08:58:57.107Z,101248.91
2023-06-27T09:03:59.655Z,101248.31
2023-06-27T09:09:01.301Z,101252.22
2023-06-27T09:14:03.175Z,101254.50
2023-06-27T09:19:04.577Z,101244.78
2023-06-27T09:24:06.849Z,101242.22
2023-06-27T09:29:08.402Z,101249.53
2023-06-27T09:34:10.710Z,101250.94
2023-06-27T09:39:14.048Z,101286.22
2023-06-27T09:44:17.104Z,101270.91
2023-06-27T09:49:19.256Z,101271.28
2023-06-27T09:54:24.108Z,101280.13
2023-06-27T09:59:27.435Z,101273.19
2023-06-27T10:09:35.468Z,101276.53
2023-06-27T10:14:37.122Z,101259.19
2023-06-27T10:19:38.666Z,101260.47
2023-06-27T10:24:41.837Z,101274.25
2023-06-27T10:29:47.267Z,101278.03
2023-06-27T10:34:48.849Z,101273.09
2023-06-27T10:40:01.473Z,101277.56
2023-06-27T10:45:10.299Z,101278.28
2023-06-27T10:50:15.899Z,101269.34
2023-06-27T10:55:19.489Z,101277.25
2023-06-27T11:00:33.258Z,101280.41
2023-06-27T11:05:48.449Z,101278.75
2023-06-27T11:11:08.944Z,101274.81
2023-06-27T11:16:12.486Z,101289.59
2023-06-27T11:21:15.793Z,101278.22
2023-06-27T11:26:23.911Z,101279.69
2023-06-27T11:31:25.448Z,101288.75
2023-06-27T11:36:27.238Z,101277.34
2023-06-27T11:41:30.797Z,101286.28
2023-06-27T11:46:32.340Z,101297.13
2023-06-27T11:51:40.373Z,101294.31
2023-06-27T11:56:41.888Z,101298.16
2023-06-27T12:01:44.363Z,101299.75
2023-06-27T12:06:47.753Z,101292.69
2023-06-27T12:11:53.186Z,101286.06
2023-06-27T12:17:01.370Z,101284.16
2023-06-27T12:22:02.773Z,101279.00
2023-06-27T12:27:07.182Z,101285.31
2023-06-27T12:32:08.688Z,101280.28
2023-06-27T12:37:13.023Z,101283.34
2023-06-27T12:42:14.531Z,101289.13
2023-06-27T12:47:15.905Z,101287.25
2023-06-27T12:52:17.424Z,101289.53
2023-06-27T12:57:20.150Z,101293.28
2023-06-27T13:02:22.223Z,101293.72
2023-06-27T13:07:23.902Z,101283.69
2023-06-27T13:12:25.433Z,101287.19
2023-06-27T13:17:27.023Z,101281.97
2023-06-27T13:22:28.563Z,101277.69
2023-06-27T13:27:30.239Z,101275.25
2023-06-27T13:32:32.529Z,101280.22
2023-06-27T13:37:34.398Z,101267.78
2023-06-27T13:42:37.501Z,101263.03
2023-06-27T13:47:38.935Z,101259.91
2023-06-27T13:52:40.640Z,101265.00
2023-06-27T13:57:42.141Z,101260.97
2023-06-27T14:02:43.725Z,101258.09
2023-06-27T14:07:45.208Z,101260.59
2023-06-27T14:12:46.727Z,101265.19
2023-06-27T14:17:48.782Z,101257.88
2023-06-27T14:22:51.259Z,101264.44
2023-06-27T14:27:53.111Z,101271.00
2023-06-27T14:32:54.821Z,101266.34
2023-06-27T14:37:56.541Z,101264.22
2023-06-27T14:42:58.093Z,101256.47
2023-06-27T14:47:59.829Z,101262.41
2023-06-27T14:53:01.263Z,101258.31
2023-06-27T14:58:02.815Z,101268.41
2023-06-27T15:03:04.431Z,101272.50
2023-06-27T15:08:06.079Z,101254.19
2023-06-27T15:13:07.632Z,101263.47
2023-06-27T15:18:09.172Z,101262.69
2023-06-27T15:23:10.728Z,101258.81
2023-06-27T15:28:12.898Z,101263.91
2023-06-27T15:33:14.288Z,101264.63
2023-06-27T15:38:16.219Z,101264.56
2023-06-27T15:43:17.828Z,101245.19
2023-06-27T15:48:19.359Z,101247.00
2023-06-27T15:53:20.883Z,101248.81
2023-06-27T15:58:22.388Z,101242.09
2023-06-27T16:03:24.094Z,101255.75
2023-06-27T16:08:25.757Z,101263.47
2023-06-27T16:13:27.261Z,101260.69
2023-06-27T16:18:28.783Z,101257.34
2023-06-27T16:23:30.309Z,101269.81
2023-06-27T16:28:31.810Z,101261.28
2023-06-27T16:33:33.361Z,101258.78
2023-06-27T16:38:34.882Z,101254.34
2023-06-27T16:43:36.444Z,101258.19
2023-06-27T16:48:37.950Z,101259.16
2023-06-27T16:53:39.554Z,101255.84
2023-06-27T16:58:41.082Z,101253.91
2023-06-27T17:03:42.790Z,101253.38
2023-06-27T17:08:44.607Z,101257.47
2023-06-27T17:13:49.023Z,101259.91
2023-06-27T17:18:50.959Z,101257.28
2023-06-27T17:23:53.090Z,101255.16
2023-06-27T17:28:54.606Z,101269.59
2023-06-27T17:33:56.119Z,101261.91
2023-06-27T17:38:58.885Z,101260.13
2023-06-27T17:44:00.384Z,101260.63
2023-06-27T17:49:01.905Z,101259.78
2023-06-27T17:54:03.417Z,101261.53
2023-06-27T17:59:04.919Z,101264.91
2023-06-27T18:04:06.446Z,101260.50
2023-06-27T18:09:07.977Z,101271.31
2023-06-27T18:14:09.543Z,101271.72
2023-06-27T18:19:11.088Z,101268.47
2023-06-27T18:24:12.631Z,101272.06
2023-06-27T18:29:14.204Z,101270.78
2023-06-27T18:34:16.165Z,101264.84
2023-06-27T18:39:17.841Z,101273.41
2023-06-27T18:44:19.390Z,101274.75
2023-06-27T18:49:20.897Z,101270.81
2023-06-27T18:54:22.406Z,101258.72
2023-06-27T18:59:23.915Z,101269.28
2023-06-27T19:04:26.694Z,101283.22
2023-06-27T19:09:29.285Z,101279.94
2023-06-27T19:14:30.814Z,101277.47
2023-06-27T19:19:32.327Z,101272.81
2023-06-27T19:24:34.365Z,101273.69
2023-06-27T19:29:35.878Z,101271.75
2023-06-27T19:34:37.390Z,101269.00
2023-06-27T19:39:38.930Z,101275.47
2023-06-27T19:44:40.440Z,101280.78
2023-06-27T19:49:42.136Z,101277.25
2023-06-27T19:54:43.678Z,101278.59
2023-06-27T19:59:45.222Z,101286.66
2023-06-27T20:04:46.815Z,101285.44
2023-06-27T20:09:48.381Z,101284.84
2023-06-27T20:14:49.916Z,101264.34
2023-06-27T20:19:51.432Z,101268.94
2023-06-27T20:24:53.031Z,101276.31
2023-06-27T20:29:54.563Z,101276.81
2023-06-27T20:34:56.070Z,101272.16
2023-06-27T20:39:58.552Z,101284.19
2023-06-27T20:45:00.066Z,101277.97
2023-06-27T20:50:01.610Z,101278.09
2023-06-27T20:55:03.154Z,101283.13
2023-06-27T21:00:05.084Z,101270.81
2023-06-27T21:05:07.063Z,101277.50
2023-06-27T21:10:08.895Z,101270.50
2023-06-27T21:15:10.460Z,101274.25
2023-06-27T21:20:12.254Z,101270.38
2023-06-27T21:25:14.451Z,101274.28
2023-06-27T21:30:15.962Z,101272.19
2023-06-27T21:35:17.484Z,101271.47
2023-06-27T21:40:19.021Z,101264.94
2023-06-27T21:45:20.560Z,101273.03
2023-06-27T21:50:22.949Z,101267.00
2023-06-27T21:55:24.469Z,101261.25
2023-06-27T22:00:26.063Z,101267.56
2023-06-27T22:05:27.594Z,101265.41
2023-06-27T22:10:29.100Z,101271.28
2023-06-27T22:15:30.592Z,101265.56
2023-06-27T22:20:32.122Z,101258.97
2023-06-27T22:25:34.794Z,101261.44
2023-06-27T22:30:36.320Z,101268.63
2023-06-27T22:35:37.856Z,101257.56
2023-06-27T22:40:40.163Z,101260.63
2023-06-27T22:45:42.028Z,101263.84
2023-06-27T22:50:43.805Z,101267.31
2023-06-27T22:55:45.564Z,101268.47
2023-06-27T23:00:47.115Z,101272.31
2023-06-27T23:05:50.182Z,101280.94
2023-06-27T23:10:51.922Z,101286.66
2023-06-27T23:15:53.668Z,101286.13
2023-06-27T23:20:56.803Z,101280.75
2023-06-27T23:26:00.154Z,101279.22
2023-06-27T23:31:06.281Z,101275.31
2023-06-27T23:36:07.953Z,101283.47
2023-06-27T23:41:09.476Z,101279.16
2023-06-27T23:46:11.216Z,101285.44
2023-06-27T23:51:12.772Z,101278.22
2023-06-27T23:56:14.334Z,101270.31
